メインページ
METAR-TAF:

METAR-TAF

空港 :

Revelstoke, ブリティッシュコロンビア州, カナダ

緯度: 50-58N, 経度: 118-11W, 海抜: 443m

現時点の気象観測

当レポートは32分前の09:07(UTC)に作成
無風
気温 1°C
湿度 100%
気圧 1025 hPa
視程: 4.8km
高度400ftの雲は散在している
高度900ftの千切れ雲あり
高度2900ftの曇り

METAR: CYRV 140907Z AUTO 00000KT 3SM BR SCT004 BKN009 OVC029 01/01 A3026 RMK SLP267

時間: 01:39 (09:39 UTC)


TAF: 見つかりません

4,000以上の空港の気象観測と天気予報(METAR報とTAF報)

利用可能な観測所は地図上に黄色い丸と赤い丸で示す。

丸の上にカーソルを重ねると観測所名を参照できる。

次にクリックすると気象観測と天気予報を参照できる。

マップの切り替え:黒色「×」印の緑ボタンをクリックして拡大、「-」印の緑ボタンをクリックして縮小、緑色の三角印をクリックして隣りの地図に切り替え


METAR-TAF: